sensor_id;sensor_type;location;lat;lon;timestamp;P1;durP1;ratioP1;P2;durP2;ratioP2
19810;SDS011;10065;49.632;8.346;2023-02-15T00:01:49;51.40;;;19.83;;
19810;SDS011;10065;49.632;8.346;2023-02-15T00:04:19;49.37;;;21.20;;
19810;SDS011;10065;49.632;8.346;2023-02-15T00:06:48;54.10;;;20.90;;
19810;SDS011;10065;49.632;8.346;2023-02-15T00:09:16;56.07;;;22.43;;
19810;SDS011;10065;49.632;8.346;2023-02-15T00:11:44;52.63;;;20.27;;
19810;SDS011;10065;49.632;8.346;2023-02-15T00:14:17;52.03;;;21.77;;
19810;SDS011;10065;49.632;8.346;2023-02-15T00:16:46;51.20;;;21.20;;
19810;SDS011;10065;49.632;8.346;2023-02-15T00:19:17;53.07;;;21.17;;
19810;SDS011;10065;49.632;8.346;2023-02-15T00:21:46;48.00;;;20.87;;
19810;SDS011;10065;49.632;8.346;2023-02-15T00:24:15;53.13;;;20.60;;
19810;SDS011;10065;49.632;8.346;2023-02-15T00:26:45;54.63;;;19.70;;
19810;SDS011;10065;49.632;8.346;2023-02-15T00:29:14;53.80;;;21.33;;
19810;SDS011;10065;49.632;8.346;2023-02-15T00:31:42;60.27;;;21.93;;
19810;SDS011;10065;49.632;8.346;2023-02-15T00:34:11;49.53;;;19.13;;
19810;SDS011;10065;49.632;8.346;2023-02-15T00:36:41;53.70;;;19.87;;
19810;SDS011;10065;49.632;8.346;2023-02-15T00:39:10;49.53;;;19.10;;
19810;SDS011;10065;49.632;8.346;2023-02-15T00:41:38;50.23;;;18.90;;
19810;SDS011;10065;49.632;8.346;2023-02-15T00:44:06;53.33;;;20.90;;
19810;SDS011;10065;49.632;8.346;2023-02-15T00:46:34;52.53;;;22.03;;
19810;SDS011;10065;49.632;8.346;2023-02-15T00:49:02;51.33;;;21.17;;
19810;SDS011;10065;49.632;8.346;2023-02-15T00:51:30;52.40;;;21.10;;
19810;SDS011;10065;49.632;8.346;2023-02-15T00:53:59;55.87;;;22.27;;
19810;SDS011;10065;49.632;8.346;2023-02-15T00:56:27;57.00;;;21.53;;
19810;SDS011;10065;49.632;8.346;2023-02-15T00:58:55;51.47;;;20.13;;
19810;SDS011;10065;49.632;8.346;2023-02-15T01:01:23;52.87;;;20.30;;
19810;SDS011;10065;49.632;8.346;2023-02-15T01:03:52;51.10;;;21.10;;
19810;SDS011;10065;49.632;8.346;2023-02-15T01:06:20;61.83;;;21.10;;
19810;SDS011;10065;49.632;8.346;2023-02-15T01:08:47;53.23;;;19.77;;
19810;SDS011;10065;49.632;8.346;2023-02-15T01:11:19;61.10;;;22.10;;
19810;SDS011;10065;49.632;8.346;2023-02-15T01:13:49;53.40;;;21.33;;
19810;SDS011;10065;49.632;8.346;2023-02-15T01:16:17;58.63;;;20.83;;
19810;SDS011;10065;49.632;8.346;2023-02-15T01:18:46;53.33;;;21.30;;
19810;SDS011;10065;49.632;8.346;2023-02-15T01:21:15;53.80;;;22.17;;
19810;SDS011;10065;49.632;8.346;2023-02-15T01:23:45;60.73;;;22.30;;
19810;SDS011;10065;49.632;8.346;2023-02-15T01:26:14;59.53;;;21.30;;
19810;SDS011;10065;49.632;8.346;2023-02-15T01:28:43;53.13;;;20.83;;
19810;SDS011;10065;49.632;8.346;2023-02-15T01:31:12;53.53;;;22.33;;
19810;SDS011;10065;49.632;8.346;2023-02-15T01:33:41;58.80;;;22.07;;
19810;SDS011;10065;49.632;8.346;2023-02-15T01:36:09;59.27;;;22.30;;
19810;SDS011;10065;49.632;8.346;2023-02-15T01:38:37;55.10;;;21.57;;
19810;SDS011;10065;49.632;8.346;2023-02-15T01:41:06;59.47;;;21.73;;
19810;SDS011;10065;49.632;8.346;2023-02-15T01:43:55;58.57;;;21.47;;
19810;SDS011;10065;49.632;8.346;2023-02-15T01:46:26;60.00;;;21.53;;
19810;SDS011;10065;49.632;8.346;2023-02-15T01:49:00;56.67;;;21.43;;
19810;SDS011;10065;49.632;8.346;2023-02-15T01:51:35;55.97;;;20.73;;
19810;SDS011;10065;49.632;8.346;2023-02-15T01:54:05;61.23;;;23.97;;
19810;SDS011;10065;49.632;8.346;2023-02-15T01:56:40;51.77;;;20.67;;
19810;SDS011;10065;49.632;8.346;2023-02-15T01:59:11;56.13;;;20.87;;
19810;SDS011;10065;49.632;8.346;2023-02-15T02:01:44;58.87;;;22.67;;
19810;SDS011;10065;49.632;8.346;2023-02-15T02:04:13;55.80;;;22.40;;
19810;SDS011;10065;49.632;8.346;2023-02-15T02:06:47;53.43;;;20.73;;
19810;SDS011;10065;49.632;8.346;2023-02-15T02:09:17;52.60;;;20.77;;
19810;SDS011;10065;49.632;8.346;2023-02-15T02:11:45;52.33;;;19.90;;
19810;SDS011;10065;49.632;8.346;2023-02-15T02:14:16;57.77;;;22.87;;
19810;SDS011;10065;49.632;8.346;2023-02-15T02:16:46;51.57;;;21.43;;
19810;SDS011;10065;49.632;8.346;2023-02-15T02:19:39;59.07;;;21.80;;
19810;SDS011;10065;49.632;8.346;2023-02-15T02:28:59;53.63;;;21.50;;
19810;SDS011;10065;49.632;8.346;2023-02-15T02:31:56;54.63;;;21.73;;
19810;SDS011;10065;49.632;8.346;2023-02-15T02:34:36;53.47;;;20.93;;
19810;SDS011;10065;49.632;8.346;2023-02-15T02:37:12;56.90;;;20.73;;
19810;SDS011;10065;49.632;8.346;2023-02-15T02:39:52;56.20;;;22.03;;
19810;SDS011;10065;49.632;8.346;2023-02-15T02:42:33;49.23;;;20.03;;
19810;SDS011;10065;49.632;8.346;2023-02-15T02:45:06;48.77;;;21.57;;
19810;SDS011;10065;49.632;8.346;2023-02-15T02:47:37;44.17;;;19.30;;
19810;SDS011;10065;49.632;8.346;2023-02-15T02:50:13;52.03;;;21.07;;
19810;SDS011;10065;49.632;8.346;2023-02-15T02:52:44;56.30;;;22.30;;
19810;SDS011;10065;49.632;8.346;2023-02-15T02:55:13;50.03;;;20.43;;
19810;SDS011;10065;49.632;8.346;2023-02-15T02:57:46;51.23;;;20.97;;
19810;SDS011;10065;49.632;8.346;2023-02-15T03:00:20;48.63;;;20.17;;
19810;SDS011;10065;49.632;8.346;2023-02-15T03:02:50;49.30;;;19.60;;
19810;SDS011;10065;49.632;8.346;2023-02-15T03:05:26;51.87;;;20.07;;
19810;SDS011;10065;49.632;8.346;2023-02-15T03:07:56;50.33;;;20.30;;
19810;SDS011;10065;49.632;8.346;2023-02-15T03:10:27;48.23;;;19.43;;
19810;SDS011;10065;49.632;8.346;2023-02-15T03:12:56;48.30;;;19.77;;
19810;SDS011;10065;49.632;8.346;2023-02-15T03:15:25;50.27;;;19.20;;
19810;SDS011;10065;49.632;8.346;2023-02-15T03:18:16;44.40;;;18.97;;
19810;SDS011;10065;49.632;8.346;2023-02-15T03:20:46;50.93;;;20.03;;
19810;SDS011;10065;49.632;8.346;2023-02-15T03:23:16;46.73;;;19.60;;
19810;SDS011;10065;49.632;8.346;2023-02-15T03:25:48;48.50;;;20.57;;
19810;SDS011;10065;49.632;8.346;2023-02-15T03:28:19;47.27;;;19.07;;
19810;SDS011;10065;49.632;8.346;2023-02-15T03:30:53;45.40;;;18.90;;
19810;SDS011;10065;49.632;8.346;2023-02-15T03:33:24;47.87;;;19.10;;
19810;SDS011;10065;49.632;8.346;2023-02-15T03:35:57;44.87;;;19.03;;
19810;SDS011;10065;49.632;8.346;2023-02-15T03:38:30;46.93;;;18.10;;
19810;SDS011;10065;49.632;8.346;2023-02-15T03:41:05;50.60;;;20.13;;
19810;SDS011;10065;49.632;8.346;2023-02-15T03:43:39;48.70;;;19.23;;
19810;SDS011;10065;49.632;8.346;2023-02-15T03:46:16;49.43;;;18.83;;
19810;SDS011;10065;49.632;8.346;2023-02-15T03:48:52;45.20;;;19.23;;
19810;SDS011;10065;49.632;8.346;2023-02-15T03:51:25;46.87;;;18.83;;
19810;SDS011;10065;49.632;8.346;2023-02-15T03:54:05;43.00;;;17.43;;
19810;SDS011;10065;49.632;8.346;2023-02-15T03:56:36;47.40;;;19.50;;
19810;SDS011;10065;49.632;8.346;2023-02-15T03:59:05;45.20;;;18.60;;
19810;SDS011;10065;49.632;8.346;2023-02-15T04:01:54;40.50;;;17.50;;
19810;SDS011;10065;49.632;8.346;2023-02-15T04:04:33;51.93;;;18.57;;
19810;SDS011;10065;49.632;8.346;2023-02-15T04:07:05;46.20;;;18.50;;
19810;SDS011;10065;49.632;8.346;2023-02-15T04:09:34;43.63;;;18.57;;
19810;SDS011;10065;49.632;8.346;2023-02-15T04:12:19;40.70;;;18.30;;
19810;SDS011;10065;49.632;8.346;2023-02-15T04:14:47;46.80;;;18.63;;
19810;SDS011;10065;49.632;8.346;2023-02-15T04:17:33;46.20;;;19.33;;
19810;SDS011;10065;49.632;8.346;2023-02-15T04:20:00;43.37;;;18.80;;
19810;SDS011;10065;49.632;8.346;2023-02-15T04:22:47;44.73;;;18.10;;
19810;SDS011;10065;49.632;8.346;2023-02-15T04:25:33;45.90;;;20.20;;
19810;SDS011;10065;49.632;8.346;2023-02-15T04:28:01;45.17;;;18.63;;
19810;SDS011;10065;49.632;8.346;2023-02-15T04:30:28;44.03;;;17.70;;
19810;SDS011;10065;49.632;8.346;2023-02-15T04:32:56;47.30;;;20.70;;
19810;SDS011;10065;49.632;8.346;2023-02-15T04:35:24;45.37;;;19.60;;
19810;SDS011;10065;49.632;8.346;2023-02-15T04:37:54;46.47;;;19.43;;
19810;SDS011;10065;49.632;8.346;2023-02-15T04:40:22;48.97;;;19.43;;
19810;SDS011;10065;49.632;8.346;2023-02-15T04:42:50;44.90;;;19.60;;
19810;SDS011;10065;49.632;8.346;2023-02-15T04:45:17;50.17;;;19.20;;
19810;SDS011;10065;49.632;8.346;2023-02-15T04:47:45;47.97;;;18.70;;
19810;SDS011;10065;49.632;8.346;2023-02-15T04:50:13;51.60;;;19.07;;
19810;SDS011;10065;49.632;8.346;2023-02-15T04:52:40;47.63;;;18.93;;
19810;SDS011;10065;49.632;8.346;2023-02-15T04:55:09;48.43;;;19.07;;
19810;SDS011;10065;49.632;8.346;2023-02-15T04:57:37;41.63;;;17.77;;
19810;SDS011;10065;49.632;8.346;2023-02-15T05:00:05;43.80;;;17.87;;
19810;SDS011;10065;49.632;8.346;2023-02-15T05:02:35;40.77;;;19.03;;
19810;SDS011;10065;49.632;8.346;2023-02-15T05:05:03;43.53;;;17.67;;
19810;SDS011;10065;49.632;8.346;2023-02-15T05:07:31;42.47;;;17.87;;
19810;SDS011;10065;49.632;8.346;2023-02-15T05:09:58;38.70;;;17.03;;
19810;SDS011;10065;49.632;8.346;2023-02-15T05:12:27;44.23;;;18.13;;
19810;SDS011;10065;49.632;8.346;2023-02-15T05:14:55;43.73;;;17.83;;
19810;SDS011;10065;49.632;8.346;2023-02-15T05:17:23;43.57;;;18.03;;
19810;SDS011;10065;49.632;8.346;2023-02-15T05:19:50;44.30;;;18.50;;
19810;SDS011;10065;49.632;8.346;2023-02-15T05:22:18;38.57;;;16.70;;
19810;SDS011;10065;49.632;8.346;2023-02-15T05:24:46;39.30;;;17.83;;
19810;SDS011;10065;49.632;8.346;2023-02-15T05:27:33;38.53;;;17.40;;
19810;SDS011;10065;49.632;8.346;2023-02-15T05:30:18;44.77;;;18.37;;
19810;SDS011;10065;49.632;8.346;2023-02-15T05:32:47;45.83;;;18.47;;
19810;SDS011;10065;49.632;8.346;2023-02-15T05:35:15;44.87;;;18.70;;
19810;SDS011;10065;49.632;8.346;2023-02-15T05:37:45;45.13;;;18.60;;
19810;SDS011;10065;49.632;8.346;2023-02-15T05:40:12;47.67;;;19.87;;
19810;SDS011;10065;49.632;8.346;2023-02-15T05:42:41;51.60;;;19.57;;
19810;SDS011;10065;49.632;8.346;2023-02-15T05:45:09;52.93;;;19.97;;
19810;SDS011;10065;49.632;8.346;2023-02-15T05:47:37;47.23;;;19.17;;
19810;SDS011;10065;49.632;8.346;2023-02-15T05:50:05;42.67;;;19.00;;
19810;SDS011;10065;49.632;8.346;2023-02-15T05:52:34;48.97;;;19.33;;
19810;SDS011;10065;49.632;8.346;2023-02-15T05:55:02;49.80;;;19.83;;
19810;SDS011;10065;49.632;8.346;2023-02-15T05:57:30;50.37;;;19.10;;
19810;SDS011;10065;49.632;8.346;2023-02-15T05:59:59;47.23;;;18.13;;
19810;SDS011;10065;49.632;8.346;2023-02-15T06:02:27;48.73;;;20.03;;
19810;SDS011;10065;49.632;8.346;2023-02-15T06:04:55;51.50;;;19.70;;
19810;SDS011;10065;49.632;8.346;2023-02-15T06:07:22;49.40;;;19.20;;
19810;SDS011;10065;49.632;8.346;2023-02-15T06:09:50;42.33;;;18.00;;
19810;SDS011;10065;49.632;8.346;2023-02-15T06:12:18;44.60;;;17.70;;
19810;SDS011;10065;49.632;8.346;2023-02-15T06:14:45;46.20;;;18.50;;
19810;SDS011;10065;49.632;8.346;2023-02-15T06:17:15;41.53;;;18.27;;
19810;SDS011;10065;49.632;8.346;2023-02-15T06:19:43;40.83;;;17.57;;
19810;SDS011;10065;49.632;8.346;2023-02-15T06:22:11;46.33;;;19.27;;
19810;SDS011;10065;49.632;8.346;2023-02-15T06:24:40;46.80;;;18.43;;
19810;SDS011;10065;49.632;8.346;2023-02-15T06:27:08;52.77;;;19.07;;
19810;SDS011;10065;49.632;8.346;2023-02-15T06:29:36;48.50;;;19.13;;
19810;SDS011;10065;49.632;8.346;2023-02-15T06:32:04;44.37;;;18.63;;
19810;SDS011;10065;49.632;8.346;2023-02-15T06:34:34;43.97;;;18.53;;
19810;SDS011;10065;49.632;8.346;2023-02-15T06:37:01;49.73;;;18.20;;
19810;SDS011;10065;49.632;8.346;2023-02-15T06:39:29;47.93;;;18.73;;
19810;SDS011;10065;49.632;8.346;2023-02-15T06:41:57;45.20;;;18.00;;
19810;SDS011;10065;49.632;8.346;2023-02-15T06:44:25;43.20;;;18.03;;
19810;SDS011;10065;49.632;8.346;2023-02-15T06:46:52;48.67;;;18.03;;
19810;SDS011;10065;49.632;8.346;2023-02-15T06:49:20;37.93;;;17.07;;
19810;SDS011;10065;49.632;8.346;2023-02-15T06:51:49;47.13;;;19.27;;
19810;SDS011;10065;49.632;8.346;2023-02-15T06:54:17;42.17;;;18.03;;
19810;SDS011;10065;49.632;8.346;2023-02-15T06:56:45;41.70;;;17.30;;
19810;SDS011;10065;49.632;8.346;2023-02-15T06:59:12;44.03;;;18.17;;
19810;SDS011;10065;49.632;8.346;2023-02-15T07:01:40;43.27;;;19.33;;
19810;SDS011;10065;49.632;8.346;2023-02-15T07:04:07;46.57;;;19.40;;
19810;SDS011;10065;49.632;8.346;2023-02-15T07:06:35;49.17;;;19.30;;
19810;SDS011;10065;49.632;8.346;2023-02-15T07:09:04;48.60;;;19.27;;
19810;SDS011;10065;49.632;8.346;2023-02-15T07:11:33;44.47;;;18.73;;
19810;SDS011;10065;49.632;8.346;2023-02-15T07:14:18;45.97;;;18.83;;
19810;SDS011;10065;49.632;8.346;2023-02-15T07:16:45;39.80;;;18.13;;
19810;SDS011;10065;49.632;8.346;2023-02-15T07:19:13;50.03;;;18.87;;
19810;SDS011;10065;49.632;8.346;2023-02-15T07:21:41;43.67;;;18.57;;
19810;SDS011;10065;49.632;8.346;2023-02-15T07:24:11;43.33;;;18.37;;
19810;SDS011;10065;49.632;8.346;2023-02-15T07:26:39;45.03;;;17.87;;
19810;SDS011;10065;49.632;8.346;2023-02-15T07:29:07;43.60;;;18.30;;
19810;SDS011;10065;49.632;8.346;2023-02-15T07:31:34;47.80;;;20.37;;
19810;SDS011;10065;49.632;8.346;2023-02-15T07:34:02;51.57;;;20.43;;
19810;SDS011;10065;49.632;8.346;2023-02-15T07:36:29;40.90;;;19.30;;
19810;SDS011;10065;49.632;8.346;2023-02-15T07:38:57;47.70;;;19.23;;
19810;SDS011;10065;49.632;8.346;2023-02-15T07:41:26;49.53;;;20.10;;
19810;SDS011;10065;49.632;8.346;2023-02-15T07:43:54;47.80;;;19.47;;
19810;SDS011;10065;49.632;8.346;2023-02-15T07:46:22;43.17;;;18.43;;
19810;SDS011;10065;49.632;8.346;2023-02-15T07:48:49;48.23;;;18.23;;
19810;SDS011;10065;49.632;8.346;2023-02-15T07:51:17;55.03;;;20.80;;
19810;SDS011;10065;49.632;8.346;2023-02-15T07:53:45;56.10;;;19.83;;
19810;SDS011;10065;49.632;8.346;2023-02-15T07:56:14;50.10;;;19.30;;
19810;SDS011;10065;49.632;8.346;2023-02-15T07:58:43;54.07;;;20.83;;
19810;SDS011;10065;49.632;8.346;2023-02-15T08:01:22;47.63;;;20.03;;
19810;SDS011;10065;49.632;8.346;2023-02-15T08:03:52;42.17;;;18.10;;
19810;SDS011;10065;49.632;8.346;2023-02-15T08:06:23;37.80;;;15.13;;
19810;SDS011;10065;49.632;8.346;2023-02-15T08:08:53;33.07;;;15.17;;
19810;SDS011;10065;49.632;8.346;2023-02-15T08:11:21;34.37;;;15.70;;
19810;SDS011;10065;49.632;8.346;2023-02-15T08:13:57;39.70;;;16.53;;
19810;SDS011;10065;49.632;8.346;2023-02-15T08:16:27;36.07;;;16.97;;
19810;SDS011;10065;49.632;8.346;2023-02-15T08:18:57;31.83;;;15.47;;
19810;SDS011;10065;49.632;8.346;2023-02-15T08:21:27;38.67;;;16.53;;
19810;SDS011;10065;49.632;8.346;2023-02-15T08:23:56;39.10;;;16.23;;
19810;SDS011;10065;49.632;8.346;2023-02-15T08:26:25;34.33;;;15.13;;
19810;SDS011;10065;49.632;8.346;2023-02-15T08:28:54;30.93;;;15.10;;
19810;SDS011;10065;49.632;8.346;2023-02-15T08:31:24;33.53;;;14.37;;
19810;SDS011;10065;49.632;8.346;2023-02-15T08:33:52;32.70;;;15.40;;
19810;SDS011;10065;49.632;8.346;2023-02-15T08:36:22;29.70;;;14.97;;
19810;SDS011;10065;49.632;8.346;2023-02-15T08:38:51;30.83;;;14.57;;
19810;SDS011;10065;49.632;8.346;2023-02-15T08:41:19;32.10;;;13.83;;
19810;SDS011;10065;49.632;8.346;2023-02-15T08:43:49;28.83;;;14.10;;
19810;SDS011;10065;49.632;8.346;2023-02-15T08:46:20;31.57;;;14.17;;
19810;SDS011;10065;49.632;8.346;2023-02-15T08:48:50;28.70;;;13.13;;
19810;SDS011;10065;49.632;8.346;2023-02-15T08:51:19;28.80;;;13.80;;
19810;SDS011;10065;49.632;8.346;2023-02-15T08:53:49;31.73;;;14.63;;
19810;SDS011;10065;49.632;8.346;2023-02-15T08:56:18;29.10;;;14.17;;
19810;SDS011;10065;49.632;8.346;2023-02-15T08:58:48;30.70;;;14.03;;
19810;SDS011;10065;49.632;8.346;2023-02-15T09:01:16;27.30;;;13.57;;
19810;SDS011;10065;49.632;8.346;2023-02-15T09:03:46;30.57;;;14.50;;
19810;SDS011;10065;49.632;8.346;2023-02-15T09:06:17;30.33;;;14.23;;
19810;SDS011;10065;49.632;8.346;2023-02-15T09:08:44;28.93;;;14.37;;
19810;SDS011;10065;49.632;8.346;2023-02-15T09:11:13;27.27;;;13.10;;
19810;SDS011;10065;49.632;8.346;2023-02-15T09:13:48;30.43;;;14.20;;
19810;SDS011;10065;49.632;8.346;2023-02-15T09:16:17;28.53;;;14.07;;
19810;SDS011;10065;49.632;8.346;2023-02-15T09:18:45;30.27;;;15.23;;
19810;SDS011;10065;49.632;8.346;2023-02-15T09:21:14;31.50;;;14.33;;
19810;SDS011;10065;49.632;8.346;2023-02-15T09:23:45;32.57;;;14.27;;
19810;SDS011;10065;49.632;8.346;2023-02-15T09:26:15;40.00;;;15.97;;
19810;SDS011;10065;49.632;8.346;2023-02-15T09:28:44;33.33;;;14.70;;
19810;SDS011;10065;49.632;8.346;2023-02-15T09:31:12;36.10;;;15.57;;
19810;SDS011;10065;49.632;8.346;2023-02-15T09:33:42;33.60;;;14.90;;
19810;SDS011;10065;49.632;8.346;2023-02-15T09:36:15;34.80;;;16.83;;
19810;SDS011;10065;49.632;8.346;2023-02-15T09:38:46;27.93;;;14.60;;
19810;SDS011;10065;49.632;8.346;2023-02-15T09:41:19;33.50;;;15.30;;
19810;SDS011;10065;49.632;8.346;2023-02-15T09:44:05;28.73;;;13.83;;
19810;SDS011;10065;49.632;8.346;2023-02-15T09:46:47;30.10;;;15.07;;
19810;SDS011;10065;49.632;8.346;2023-02-15T09:49:27;27.47;;;14.17;;
19810;SDS011;10065;49.632;8.346;2023-02-15T09:52:08;28.97;;;13.70;;
19810;SDS011;10065;49.632;8.346;2023-02-15T09:54:53;27.63;;;14.07;;
19810;SDS011;10065;49.632;8.346;2023-02-15T09:57:40;28.43;;;14.00;;
19810;SDS011;10065;49.632;8.346;2023-02-15T10:00:16;29.83;;;14.33;;
19810;SDS011;10065;49.632;8.346;2023-02-15T10:03:02;27.60;;;13.90;;
19810;SDS011;10065;49.632;8.346;2023-02-15T10:05:43;29.20;;;14.80;;
19810;SDS011;10065;49.632;8.346;2023-02-15T10:08:27;28.00;;;13.00;;
19810;SDS011;10065;49.632;8.346;2023-02-15T10:11:19;27.60;;;13.30;;
19810;SDS011;10065;49.632;8.346;2023-02-15T10:14:24;29.07;;;14.13;;
19810;SDS011;10065;49.632;8.346;2023-02-15T10:17:08;31.00;;;14.43;;
19810;SDS011;10065;49.632;8.346;2023-02-15T10:19:48;27.97;;;13.83;;
19810;SDS011;10065;49.632;8.346;2023-02-15T10:22:29;27.37;;;13.63;;
19810;SDS011;10065;49.632;8.346;2023-02-15T10:25:07;27.97;;;14.50;;
19810;SDS011;10065;49.632;8.346;2023-02-15T10:27:46;27.37;;;13.70;;
19810;SDS011;10065;49.632;8.346;2023-02-15T10:30:16;24.80;;;12.93;;
19810;SDS011;10065;49.632;8.346;2023-02-15T10:32:53;27.27;;;14.30;;
19810;SDS011;10065;49.632;8.346;2023-02-15T10:35:29;24.47;;;13.37;;
19810;SDS011;10065;49.632;8.346;2023-02-15T10:38:08;31.73;;;14.93;;
19810;SDS011;10065;49.632;8.346;2023-02-15T10:40:46;28.47;;;14.67;;
19810;SDS011;10065;49.632;8.346;2023-02-15T10:43:32;26.60;;;13.77;;
19810;SDS011;10065;49.632;8.346;2023-02-15T10:46:13;28.63;;;14.80;;
19810;SDS011;10065;49.632;8.346;2023-02-15T10:48:59;26.07;;;13.30;;
19810;SDS011;10065;49.632;8.346;2023-02-15T10:51:50;25.77;;;13.63;;
19810;SDS011;10065;49.632;8.346;2023-02-15T10:54:32;26.30;;;13.83;;
19810;SDS011;10065;49.632;8.346;2023-02-15T10:57:10;26.90;;;13.40;;
19810;SDS011;10065;49.632;8.346;2023-02-15T10:59:50;28.87;;;15.23;;
19810;SDS011;10065;49.632;8.346;2023-02-15T11:02:29;29.97;;;13.80;;
19810;SDS011;10065;49.632;8.346;2023-02-15T11:05:13;33.10;;;15.40;;
19810;SDS011;10065;49.632;8.346;2023-02-15T11:07:52;32.00;;;15.43;;
19810;SDS011;10065;49.632;8.346;2023-02-15T11:10:26;29.10;;;14.67;;
19810;SDS011;10065;49.632;8.346;2023-02-15T11:12:58;27.17;;;13.93;;
19810;SDS011;10065;49.632;8.346;2023-02-15T11:15:34;30.13;;;14.83;;
19810;SDS011;10065;49.632;8.346;2023-02-15T11:18:09;30.13;;;14.33;;
19810;SDS011;10065;49.632;8.346;2023-02-15T11:20:42;30.07;;;14.27;;
19810;SDS011;10065;49.632;8.346;2023-02-15T11:23:17;31.40;;;15.37;;
19810;SDS011;10065;49.632;8.346;2023-02-15T11:25:46;27.67;;;14.17;;
19810;SDS011;10065;49.632;8.346;2023-02-15T11:28:22;33.03;;;14.73;;
19810;SDS011;10065;49.632;8.346;2023-02-15T11:30:56;28.83;;;14.37;;
19810;SDS011;10065;49.632;8.346;2023-02-15T11:33:30;30.03;;;14.93;;
19810;SDS011;10065;49.632;8.346;2023-02-15T11:36:05;32.90;;;16.20;;
19810;SDS011;10065;49.632;8.346;2023-02-15T11:38:39;33.47;;;15.87;;
19810;SDS011;10065;49.632;8.346;2023-02-15T11:41:10;30.57;;;14.90;;
19810;SDS011;10065;49.632;8.346;2023-02-15T11:43:42;31.57;;;14.97;;
19810;SDS011;10065;49.632;8.346;2023-02-15T11:46:15;29.73;;;14.53;;
19810;SDS011;10065;49.632;8.346;2023-02-15T11:48:44;30.87;;;15.03;;
19810;SDS011;10065;49.632;8.346;2023-02-15T11:51:13;29.73;;;14.43;;
19810;SDS011;10065;49.632;8.346;2023-02-15T11:53:43;30.67;;;14.53;;
19810;SDS011;10065;49.632;8.346;2023-02-15T11:56:13;28.17;;;14.00;;
19810;SDS011;10065;49.632;8.346;2023-02-15T11:58:43;34.20;;;16.37;;
19810;SDS011;10065;49.632;8.346;2023-02-15T12:01:16;30.93;;;14.80;;
19810;SDS011;10065;49.632;8.346;2023-02-15T12:03:49;34.17;;;17.27;;
19810;SDS011;10065;49.632;8.346;2023-02-15T12:06:21;35.33;;;16.63;;
19810;SDS011;10065;49.632;8.346;2023-02-15T12:08:54;35.90;;;15.77;;
19810;SDS011;10065;49.632;8.346;2023-02-15T12:11:30;32.47;;;16.57;;
19810;SDS011;10065;49.632;8.346;2023-02-15T12:14:02;37.70;;;17.90;;
19810;SDS011;10065;49.632;8.346;2023-02-15T12:16:34;35.17;;;18.27;;
19810;SDS011;10065;49.632;8.346;2023-02-15T12:19:13;35.50;;;18.30;;
19810;SDS011;10065;49.632;8.346;2023-02-15T12:21:53;36.33;;;17.97;;
19810;SDS011;10065;49.632;8.346;2023-02-15T12:24:23;38.27;;;18.73;;
19810;SDS011;10065;49.632;8.346;2023-02-15T12:26:56;40.73;;;19.63;;
19810;SDS011;10065;49.632;8.346;2023-02-15T12:29:29;36.90;;;19.17;;
19810;SDS011;10065;49.632;8.346;2023-02-15T12:32:03;38.47;;;20.47;;
19810;SDS011;10065;49.632;8.346;2023-02-15T12:34:32;39.33;;;20.90;;
19810;SDS011;10065;49.632;8.346;2023-02-15T12:37:08;36.47;;;18.70;;
19810;SDS011;10065;49.632;8.346;2023-02-15T12:39:38;39.63;;;20.27;;
19810;SDS011;10065;49.632;8.346;2023-02-15T12:42:19;39.40;;;19.87;;
19810;SDS011;10065;49.632;8.346;2023-02-15T12:44:55;39.03;;;20.87;;
19810;SDS011;10065;49.632;8.346;2023-02-15T12:47:26;47.57;;;20.47;;
19810;SDS011;10065;49.632;8.346;2023-02-15T12:50:08;40.13;;;21.57;;
19810;SDS011;10065;49.632;8.346;2023-02-15T12:52:45;48.53;;;22.93;;
19810;SDS011;10065;49.632;8.346;2023-02-15T12:55:19;47.33;;;23.43;;
19810;SDS011;10065;49.632;8.346;2023-02-15T12:57:58;45.00;;;22.57;;
19810;SDS011;10065;49.632;8.346;2023-02-15T13:00:32;49.00;;;23.70;;
19810;SDS011;10065;49.632;8.346;2023-02-15T13:03:02;51.40;;;24.10;;
19810;SDS011;10065;49.632;8.346;2023-02-15T13:05:32;50.97;;;24.87;;
19810;SDS011;10065;49.632;8.346;2023-02-15T13:08:03;52.47;;;24.80;;
19810;SDS011;10065;49.632;8.346;2023-02-15T13:10:39;51.67;;;24.40;;
19810;SDS011;10065;49.632;8.346;2023-02-15T13:13:10;50.13;;;24.80;;
19810;SDS011;10065;49.632;8.346;2023-02-15T13:15:44;53.30;;;26.03;;
19810;SDS011;10065;49.632;8.346;2023-02-15T13:18:18;53.93;;;25.13;;
19810;SDS011;10065;49.632;8.346;2023-02-15T13:20:53;50.07;;;25.07;;
19810;SDS011;10065;49.632;8.346;2023-02-15T13:23:24;51.50;;;25.00;;
19810;SDS011;10065;49.632;8.346;2023-02-15T13:25:55;54.80;;;26.10;;
19810;SDS011;10065;49.632;8.346;2023-02-15T13:28:27;57.43;;;27.57;;
19810;SDS011;10065;49.632;8.346;2023-02-15T13:31:03;59.33;;;27.90;;
19810;SDS011;10065;49.632;8.346;2023-02-15T13:33:43;54.83;;;27.53;;
19810;SDS011;10065;49.632;8.346;2023-02-15T13:36:15;59.33;;;28.20;;
19810;SDS011;10065;49.632;8.346;2023-02-15T13:38:51;55.33;;;28.57;;
19810;SDS011;10065;49.632;8.346;2023-02-15T13:41:25;59.13;;;27.73;;
19810;SDS011;10065;49.632;8.346;2023-02-15T13:44:04;60.80;;;27.07;;
19810;SDS011;10065;49.632;8.346;2023-02-15T13:46:45;59.00;;;28.87;;
19810;SDS011;10065;49.632;8.346;2023-02-15T13:49:29;55.63;;;26.93;;
19810;SDS011;10065;49.632;8.346;2023-02-15T13:52:08;59.13;;;27.37;;
19810;SDS011;10065;49.632;8.346;2023-02-15T13:54:48;59.30;;;29.13;;
19810;SDS011;10065;49.632;8.346;2023-02-15T13:58:01;60.93;;;26.93;;
19810;SDS011;10065;49.632;8.346;2023-02-15T14:00:43;62.20;;;27.43;;
19810;SDS011;10065;49.632;8.346;2023-02-15T14:03:20;54.93;;;25.27;;
19810;SDS011;10065;49.632;8.346;2023-02-15T14:06:12;55.73;;;26.93;;
19810;SDS011;10065;49.632;8.346;2023-02-15T14:08:53;62.90;;;28.20;;
19810;SDS011;10065;49.632;8.346;2023-02-15T14:11:32;61.13;;;28.20;;
19810;SDS011;10065;49.632;8.346;2023-02-15T14:17:21;60.57;;;29.07;;
19810;SDS011;10065;49.632;8.346;2023-02-15T14:19:57;64.67;;;28.00;;
19810;SDS011;10065;49.632;8.346;2023-02-15T14:22:30;61.00;;;29.60;;
19810;SDS011;10065;49.632;8.346;2023-02-15T14:25:11;68.87;;;31.30;;
19810;SDS011;10065;49.632;8.346;2023-02-15T14:27:49;69.30;;;30.60;;
19810;SDS011;10065;49.632;8.346;2023-02-15T14:30:24;68.10;;;31.80;;
19810;SDS011;10065;49.632;8.346;2023-02-15T14:32:57;78.10;;;33.50;;
19810;SDS011;10065;49.632;8.346;2023-02-15T14:35:29;71.53;;;31.73;;
19810;SDS011;10065;49.632;8.346;2023-02-15T14:38:00;71.60;;;33.17;;
19810;SDS011;10065;49.632;8.346;2023-02-15T14:40:39;76.93;;;34.77;;
19810;SDS011;10065;49.632;8.346;2023-02-15T14:43:33;75.40;;;33.47;;
19810;SDS011;10065;49.632;8.346;2023-02-15T14:46:15;71.63;;;32.63;;
19810;SDS011;10065;49.632;8.346;2023-02-15T14:48:49;76.43;;;35.50;;
19810;SDS011;10065;49.632;8.346;2023-02-15T14:57:25;73.90;;;34.23;;
19810;SDS011;10065;49.632;8.346;2023-02-15T14:59:55;65.57;;;32.07;;
19810;SDS011;10065;49.632;8.346;2023-02-15T15:02:25;74.77;;;33.97;;
19810;SDS011;10065;49.632;8.346;2023-02-15T15:04:57;71.67;;;33.77;;
19810;SDS011;10065;49.632;8.346;2023-02-15T15:07:35;74.27;;;33.17;;
19810;SDS011;10065;49.632;8.346;2023-02-15T15:10:26;69.97;;;33.40;;